GABCG EGJJ-EGJJ

Flight info

Callsign GABCG
Flight time 0h 48m
Altitude 1000
Route DCT
Aircraft C152/L-V/N

Departure

Time 2026-05-05 19:42
Airport Jersey Airport (EGJJ)

Arrival

Time 2026-05-05 20:30
Airport Jersey Airport (EGJJ)
Time Latitude Longitude Altitude Speed Heading
2026-05-05 19:21 49.20693 -2.18246 277 ft 0 kts 252°
2026-05-05 19:39 49.20693 -2.18249 277 ft 3 kts 251°
2026-05-05 19:39 49.20696 -2.18362 277 ft 17 kts 279°
2026-05-05 19:39 49.20705 -2.18449 277 ft 3 kts 302°
2026-05-05 19:40 49.20739 -2.18451 277 ft 5 kts 78°
2026-05-05 19:40 49.20756 -2.18329 277 ft 13 kts 38°
2026-05-05 19:40 49.20796 -2.18319 277 ft 0 kts 353°
2026-05-05 19:41 49.20826 -2.18333 277 ft 15 kts 330°
2026-05-05 19:41 49.20888 -2.18477 274 ft 21 kts 261°
2026-05-05 19:41 49.20843 -2.18983 276 ft 74 kts 263°
2026-05-05 19:42 49.20761 -2.19858 369 ft 92 kts 260°
2026-05-05 19:42 49.20642 -2.20811 543 ft 89 kts 259°
2026-05-05 19:42 49.20491 -2.21658 788 ft 78 kts 262°
2026-05-05 19:42 49.20312 -2.22440 995 ft 79 kts 262°
2026-05-05 19:43 49.20125 -2.23359 1004 ft 98 kts 261°
2026-05-05 19:43 49.19924 -2.24401 1011 ft 105 kts 260°
2026-05-05 19:43 49.19658 -2.25475 1011 ft 111 kts 245°
2026-05-05 19:43 49.19079 -2.26281 1008 ft 118 kts 206°
2026-05-05 19:44 49.18275 -2.26243 1008 ft 120 kts 169°
2026-05-05 19:44 49.17475 -2.25899 1010 ft 119 kts 152°
2026-05-05 19:44 49.16733 -2.25328 1008 ft 120 kts 148°
2026-05-05 19:44 49.16041 -2.24635 1008 ft 118 kts 132°
2026-05-05 19:45 49.15550 -2.23671 1006 ft 113 kts 106°
2026-05-05 19:45 49.15421 -2.22511 1005 ft 110 kts 91°
2026-05-05 19:45 49.15314 -2.21342 1004 ft 112 kts 91°
2026-05-05 19:45 49.15207 -2.20178 1010 ft 108 kts 91°
2026-05-05 19:46 49.15099 -2.19036 1004 ft 108 kts 92°
2026-05-05 19:46 49.14989 -2.17915 1005 ft 106 kts 91°
2026-05-05 19:46 49.14992 -2.16809 1003 ft 105 kts 77°
2026-05-05 19:46 49.15077 -2.15714 1004 ft 102 kts 69°
2026-05-05 19:47 49.15248 -2.14695 994 ft 99 kts 70°
2026-05-05 19:47 49.15416 -2.13660 999 ft 103 kts 69°
2026-05-05 19:47 49.15575 -2.12588 1000 ft 103 kts 71°
2026-05-05 19:47 49.15745 -2.11550 995 ft 99 kts 73°
2026-05-05 19:48 49.15769 -2.10492 999 ft 101 kts 82°
2026-05-05 19:48 49.15789 -2.09393 995 ft 104 kts 83°
2026-05-05 19:48 49.15813 -2.08295 996 ft 103 kts 82°
2026-05-05 19:48 49.15897 -2.07244 1001 ft 97 kts 58°
2026-05-05 19:49 49.16436 -2.06861 992 ft 93 kts 348°
2026-05-05 19:49 49.16793 -2.07229 991 ft 100 kts 309°
2026-05-05 19:49 49.16837 -2.08693 1000 ft 111 kts 262°
2026-05-05 19:49 49.16356 -2.09586 990 ft 116 kts 201°
2026-05-05 19:50 49.15606 -2.09361 990 ft 112 kts 131°
2026-05-05 19:50 49.15351 -2.08323 996 ft 104 kts 95°
2026-05-05 19:50 49.15355 -2.07252 1000 ft 99 kts 73°
2026-05-05 19:50 49.15477 -2.06206 1006 ft 102 kts 74°
2026-05-05 19:51 49.15576 -2.05144 1006 ft 101 kts 73°
2026-05-05 19:51 49.15680 -2.04085 1005 ft 100 kts 75°
2026-05-05 19:51 49.15783 -2.03026 1005 ft 100 kts 74°
2026-05-05 19:51 49.15898 -2.01972 1007 ft 102 kts 73°
2026-05-05 19:52 49.16009 -2.00887 1009 ft 104 kts 74°
2026-05-05 19:52 49.16387 -2.00065 1006 ft 96 kts 17°
2026-05-05 19:52 49.17015 -2.00278 1007 ft 97 kts 341°
2026-05-05 19:52 49.17641 -2.00651 1009 ft 97 kts 342°
2026-05-05 19:53 49.18272 -2.01018 1008 ft 97 kts 342°
2026-05-05 19:53 49.18912 -2.01372 1009 ft 99 kts 343°
2026-05-05 19:53 49.19496 -2.01917 1008 ft 101 kts 319°
2026-05-05 19:53 49.19993 -2.02678 1000 ft 101 kts 319°
2026-05-05 19:54 49.20495 -2.03422 1007 ft 102 kts 319°
2026-05-05 19:54 49.21009 -2.04173 1008 ft 102 kts 319°
2026-05-05 19:54 49.21511 -2.04948 1008 ft 103 kts 312°
2026-05-05 19:54 49.21878 -2.05885 1007 ft 106 kts 289°
2026-05-05 19:55 49.21818 -2.07020 997 ft 109 kts 262°
2026-05-05 19:55 49.21628 -2.08153 999 ft 110 kts 264°
2026-05-05 19:55 49.21491 -2.09271 1003 ft 106 kts 272°
2026-05-05 19:55 49.21468 -2.10379 1001 ft 105 kts 272°
2026-05-05 19:56 49.21416 -2.11490 994 ft 103 kts 273°
2026-05-05 19:56 49.21338 -2.12572 1001 ft 102 kts 265°
2026-05-05 19:56 49.21198 -2.13659 937 ft 110 kts 268°
2026-05-05 19:56 49.21041 -2.14746 972 ft 106 kts 273°
2026-05-05 19:57 49.21017 -2.15881 802 ft 106 kts 279°
2026-05-05 19:57 49.21007 -2.16642 630 ft 109 kts 268°
2026-05-05 19:57 49.20919 -2.18032 394 ft 92 kts 266°
2026-05-05 19:57 49.20846 -2.18942 281 ft 76 kts 262°
2026-05-05 19:58 49.20780 -2.19777 319 ft 85 kts 263°
2026-05-05 19:58 49.20707 -2.20662 499 ft 83 kts 265°
2026-05-05 19:58 49.20616 -2.21497 681 ft 75 kts 266°
2026-05-05 19:58 49.20501 -2.22228 862 ft 73 kts 253°
2026-05-05 19:59 49.20105 -2.22794 1024 ft 82 kts 232°
2026-05-05 19:59 49.19635 -2.23461 1039 ft 99 kts 230°
2026-05-05 19:59 49.19114 -2.24218 1036 ft 107 kts 229°
2026-05-05 19:59 49.18554 -2.24996 1036 ft 111 kts 222°
2026-05-05 20:00 49.17830 -2.25435 1036 ft 115 kts 190°
2026-05-05 20:00 49.17091 -2.25108 1029 ft 114 kts 129°
2026-05-05 20:00 49.16861 -2.24028 1031 ft 107 kts 90°
2026-05-05 20:00 49.16944 -2.22975 1028 ft 96 kts 43°
2026-05-05 20:01 49.17512 -2.22830 1032 ft 90 kts 329°
2026-05-05 20:01 49.17771 -2.23707 1036 ft 94 kts 290°
2026-05-05 20:01 49.17936 -2.24669 1036 ft 95 kts 291°
2026-05-05 20:01 49.17859 -2.25666 1032 ft 107 kts 236°
2026-05-05 20:02 49.17144 -2.25969 1026 ft 116 kts 162°
2026-05-05 20:02 49.16653 -2.25116 1057 ft 105 kts 93°
2026-05-05 20:02 49.16842 -2.24146 1100 ft 95 kts 58°
2026-05-05 20:02 49.16891 -2.23096 1126 ft 103 kts 86°
2026-05-05 20:03 49.16848 -2.21998 1146 ft 104 kts 85°
2026-05-05 20:03 49.16808 -2.20900 1158 ft 103 kts 85°
2026-05-05 20:03 49.16764 -2.19814 1159 ft 102 kts 85°
2026-05-05 20:03 49.16725 -2.18740 1156 ft 100 kts 86°
2026-05-05 20:04 49.16693 -2.17686 1148 ft 98 kts 86°
2026-05-05 20:04 49.16671 -2.16646 1145 ft 99 kts 84°
2026-05-05 20:04 49.16631 -2.15577 1142 ft 102 kts 86°
2026-05-05 20:04 49.16597 -2.14491 1145 ft 101 kts 84°
2026-05-05 20:05 49.16913 -2.13703 1142 ft 88 kts 26°
2026-05-05 20:05 49.17444 -2.13272 1141 ft 87 kts 25°
2026-05-05 20:05 49.18006 -2.12784 1011 ft 96 kts 27°
2026-05-05 20:05 49.18586 -2.12303 1002 ft 92 kts 27°
2026-05-05 20:06 49.19141 -2.11884 1010 ft 89 kts 17°
2026-05-05 20:06 49.19732 -2.11648 1008 ft 87 kts 14°
2026-05-05 20:06 49.20316 -2.11398 1000 ft 87 kts 15°
2026-05-05 20:06 49.20845 -2.11742 993 ft 94 kts 308°
2026-05-05 20:07 49.20938 -2.12761 1017 ft 97 kts 283°
2026-05-05 20:07 49.20998 -2.13840 934 ft 104 kts 284°
2026-05-05 20:07 49.21087 -2.14915 937 ft 104 kts 275°
2026-05-05 20:07 49.21062 -2.16055 782 ft 111 kts 265°
2026-05-05 20:08 49.20957 -2.17182 617 ft 99 kts 264°
2026-05-05 20:08 49.20901 -2.18206 419 ft 96 kts 262°
2026-05-05 20:08 49.20828 -2.19151 281 ft 77 kts 259°
2026-05-05 20:08 49.20770 -2.19937 349 ft 77 kts 269°
2026-05-05 20:09 49.20680 -2.20761 500 ft 80 kts 261°
2026-05-05 20:09 49.20580 -2.21598 640 ft 78 kts 270°
2026-05-05 20:09 49.20510 -2.22401 778 ft 75 kts 268°
2026-05-05 20:09 49.20410 -2.23200 928 ft 81 kts 267°
2026-05-05 20:10 49.20294 -2.24076 1005 ft 89 kts 267°
2026-05-05 20:10 49.20178 -2.25054 1009 ft 97 kts 268°
2026-05-05 20:10 49.20105 -2.25734 1009 ft 99 kts 268°
2026-05-05 20:10 49.19843 -2.27096 1002 ft 109 kts 234°
2026-05-05 20:11 49.19112 -2.27376 992 ft 116 kts 168°
2026-05-05 20:11 49.18325 -2.27130 997 ft 115 kts 169°
2026-05-05 20:11 49.17807 -2.26966 999 ft 114 kts 168°
2026-05-05 20:11 49.17024 -2.26715 999 ft 115 kts 168°
2026-05-05 20:12 49.16240 -2.26481 1001 ft 116 kts 169°
2026-05-05 20:12 49.15572 -2.25901 988 ft 111 kts 114°
2026-05-05 20:12 49.15513 -2.24795 994 ft 104 kts 79°
2026-05-05 20:12 49.15544 -2.23695 995 ft 103 kts 80°
2026-05-05 20:13 49.15576 -2.22591 998 ft 104 kts 81°
2026-05-05 20:13 49.15607 -2.21494 1001 ft 103 kts 79°
2026-05-05 20:13 49.15642 -2.20408 1003 ft 100 kts 80°
2026-05-05 20:13 49.15671 -2.19359 1002 ft 100 kts 79°
2026-05-05 20:14 49.15700 -2.18311 1002 ft 100 kts 81°
2026-05-05 20:14 49.15736 -2.17264 999 ft 98 kts 79°
2026-05-05 20:14 49.15775 -2.16248 996 ft 95 kts 81°
2026-05-05 20:14 49.15805 -2.15210 1001 ft 100 kts 81°
2026-05-05 20:15 49.15834 -2.14143 1001 ft 101 kts 78°
2026-05-05 20:15 49.16074 -2.13223 992 ft 90 kts 44°
2026-05-05 20:15 49.16638 -2.12929 991 ft 87 kts
2026-05-05 20:15 49.17244 -2.13025 998 ft 89 kts 359°
2026-05-05 20:16 49.17860 -2.12999 991 ft 88 kts
2026-05-05 20:16 49.18473 -2.12948 993 ft 88 kts
2026-05-05 20:16 49.19083 -2.12916 993 ft 88 kts
2026-05-05 20:16 49.19702 -2.12882 996 ft 89 kts
2026-05-05 20:17 49.20307 -2.12851 997 ft 87 kts
2026-05-05 20:17 49.20917 -2.12873 994 ft 89 kts 347°
2026-05-05 20:17 49.21363 -2.13511 990 ft 96 kts 294°
2026-05-05 20:17 49.21215 -2.14550 1000 ft 104 kts 259°
2026-05-05 20:18 49.21072 -2.15636 944 ft 104 kts 268°
2026-05-05 20:18 49.21000 -2.16695 701 ft 95 kts 271°
2026-05-05 20:18 49.20957 -2.17645 511 ft 86 kts 263°
2026-05-05 20:18 49.20883 -2.18524 313 ft 78 kts 263°
2026-05-05 20:19 49.20818 -2.19249 277 ft 69 kts 263°
2026-05-05 20:19 49.20761 -2.20071 362 ft 81 kts 263°
2026-05-05 20:19 49.20670 -2.20926 528 ft 81 kts 263°
2026-05-05 20:19 49.20546 -2.21757 693 ft 78 kts 262°
2026-05-05 20:20 49.20395 -2.22515 867 ft 73 kts 265°
2026-05-05 20:20 49.20226 -2.23289 999 ft 83 kts 262°
2026-05-05 20:20 49.20064 -2.24210 1010 ft 95 kts 262°
2026-05-05 20:20 49.19896 -2.25206 1011 ft 98 kts 262°
2026-05-05 20:21 49.19460 -2.26001 999 ft 110 kts 199°
2026-05-05 20:21 49.18694 -2.26031 1004 ft 111 kts 182°
2026-05-05 20:21 49.17918 -2.26015 1008 ft 111 kts 180°
2026-05-05 20:21 49.17144 -2.25987 1008 ft 111 kts 180°
2026-05-05 20:22 49.16490 -2.25494 998 ft 108 kts 114°
2026-05-05 20:22 49.16385 -2.24439 1000 ft 103 kts 95°
2026-05-05 20:22 49.16234 -2.23375 1000 ft 102 kts 94°
2026-05-05 20:22 49.16094 -2.22304 1002 ft 103 kts 94°
2026-05-05 20:23 49.15951 -2.21238 1008 ft 102 kts 94°
2026-05-05 20:23 49.15811 -2.20191 1006 ft 100 kts 95°
2026-05-05 20:23 49.15673 -2.19148 1005 ft 100 kts 95°
2026-05-05 20:23 49.15537 -2.18115 1005 ft 98 kts 94°
2026-05-05 20:24 49.15408 -2.17092 999 ft 98 kts 93°
2026-05-05 20:24 49.15266 -2.16092 997 ft 95 kts 95°
2026-05-05 20:24 49.15143 -2.15089 997 ft 97 kts 89°
2026-05-05 20:24 49.15080 -2.14061 999 ft 97 kts 89°
2026-05-05 20:25 49.15029 -2.13035 1000 ft 98 kts 88°
2026-05-05 20:25 49.14972 -2.12019 1000 ft 95 kts 88°
2026-05-05 20:25 49.14912 -2.11022 995 ft 93 kts 86°
2026-05-05 20:25 49.14857 -2.10025 996 ft 94 kts 77°
2026-05-05 20:26 49.15267 -2.09446 994 ft 85 kts 358°
2026-05-05 20:26 49.15842 -2.09652 999 ft 85 kts 350°
2026-05-05 20:26 49.16416 -2.09854 1000 ft 84 kts 350°
2026-05-05 20:26 49.17003 -2.10061 1007 ft 88 kts 349°
2026-05-05 20:27 49.17598 -2.10268 1012 ft 88 kts 349°
2026-05-05 20:27 49.18193 -2.10482 1005 ft 87 kts 350°
2026-05-05 20:27 49.18790 -2.10680 1006 ft 86 kts 349°
2026-05-05 20:27 49.19353 -2.10876 997 ft 82 kts 349°
2026-05-05 20:28 49.19912 -2.11068 1004 ft 85 kts 349°
2026-05-05 20:28 49.20509 -2.11269 1009 ft 89 kts 349°
2026-05-05 20:28 49.21105 -2.11560 1006 ft 92 kts 328°
2026-05-05 20:28 49.21388 -2.12434 1003 ft 100 kts 268°
2026-05-05 20:29 49.21266 -2.13476 1003 ft 100 kts 259°
2026-05-05 20:29 49.21135 -2.14519 908 ft 102 kts 269°
2026-05-05 20:29 49.21128 -2.15617 800 ft 104 kts 268°
2026-05-05 20:29 49.21028 -2.16663 629 ft 93 kts 267°
2026-05-05 20:30 49.20953 -2.17605 434 ft 81 kts 266°
2026-05-05 20:30 49.20895 -2.18379 328 ft 68 kts 264°
2026-05-05 20:30 49.20840 -2.19018 276 ft 52 kts 262°
2026-05-05 20:30 49.20807 -2.19399 278 ft 30 kts 263°
2026-05-05 20:31 49.20782 -2.19603 276 ft 11 kts 234°
2026-05-05 20:31 49.20713 -2.19611 275 ft 12 kts 148°
2026-05-05 20:31 49.20699 -2.19531 275 ft 8 kts 82°
2026-05-05 20:31 49.20711 -2.19403 275 ft 15 kts 89°
2026-05-05 20:32 49.20687 -2.19238 276 ft 19 kts 103°
2026-05-05 20:32 49.20690 -2.19041 276 ft 19 kts 82°
2026-05-05 20:32 49.20709 -2.18808 276 ft 24 kts 83°
2026-05-05 20:32 49.20729 -2.18556 277 ft 23 kts 82°
2026-05-05 20:33 49.20719 -2.18463 277 ft 9 kts 145°
2026-05-05 20:33 49.20697 -2.18365 277 ft 9 kts 86°
2026-05-05 20:33 49.20707 -2.18348 277 ft 0 kts 354°